Flight Track Log - Related Links

Times and Time Zones

All times are in EDT time to prevent confusion due to time zone crossing. See the EJA396 flight status page for this flight to view local times or setup timezone preferences in your user account.

Time Position Orientation Groundspeed Altitude Reporting Facility
EDT Latitude Longitude Course Direction KTS MPH feet Rate Location/Type
Mon 10:16:26 AM 40.0833 -75.0000 49° Northeast 143 165 1,000  Level Philadelphia TRACON
Mon 10:17:26 AM 40.1167 -74.9500 49° Northeast 209 241 2,200 1,789 Climbing Philadelphia TRACON
Mon 10:18:20 AM 40.0833 -74.9000 131° Southeast 216 249 4,400 2,388 Climbing Philadelphia TRACON
Mon 10:20:42 AM 39.9039 -74.8922 178° South 274 315 10,000 1,655 Climbing New York Center
Mon 10:21:43 AM 39.8358 -74.8772 170° South 279 321 10,000 689 Level New York Center
Mon 10:22:44 AM 39.7778 -74.8064 137° Southeast 260 299 11,400 1,388 Climbing New York Center
Mon 10:23:44 AM 39.7942 -74.6911 79° East 244 281 12,800 2,288 Climbing New York Center
Mon 10:24:42 AM 39.8053 -74.5431 84° East 316 364 15,900 2,924 Climbing New York Center
Mon 10:25:43 AM 39.8200 -74.4006 82° East 377 434 18,600 2,443 Climbing New York Center
Mon 10:27:56 AM 39.9561 -74.1156 58° Northeast 408 470 23,800 1,990 Climbing Boston Center
Mon 10:28:56 AM 40.0225 -73.9764 58° Northeast 427 491 25,000 600 Climbing Boston Center
Mon 10:29:56 AM 40.0953 -73.8314 57° Northeast 452 520 25,000  Level Boston Center
Mon 10:30:56 AM 40.1658 -73.6808 58° Northeast 468 539 25,000  Level Boston Center
Mon 10:31:56 AM 40.2383 -73.5356 57° Northeast 474 545 25,000  Level Boston Center
Mon 10:32:56 AM 40.3000 -73.3786 63° Northeast 474 545 25,000  Level Boston Center
Mon 10:33:56 AM 40.3575 -73.2189 65° Northeast 474 545 25,000  Level Boston Center
Mon 10:34:56 AM 40.4106 -73.0589 66° East 474 545 25,000  Level Boston Center
Mon 10:35:56 AM 40.4656 -72.8956 66° East 479 551 25,000 -100 Level Boston Center
Mon 10:36:56 AM 40.5203 -72.7350 66° East 479 551 24,800 -1,050 Descending Boston Center
Mon 10:37:56 AM 40.5706 -72.5711 68° East 479 551 22,900 -1,950 Descending Boston Center
Mon 10:38:56 AM 40.6186 -72.4347 65° Northeast 473 544 20,900 -1,450 Descending Boston Center
Mon 10:39:56 AM 40.6686 -72.2869 66° East 456 525 20,000 -450 Descending Boston Center
Mon 10:40:56 AM 40.7183 -72.1333 67° East 450 518 20,000  Level Boston Center
Mon 10:41:56 AM 40.7761 -71.9686 65° Northeast 444 511 20,000  Level Boston Center
Mon 10:42:56 AM 40.8275 -71.8258 65° Northeast 436 502 20,000  Level Boston Center
Mon 10:43:56 AM 40.8764 -71.6714 67° East 436 502 20,000  Level Boston Center
Mon 10:44:56 AM 40.9169 -71.5283 69° East 452 520 20,000 -600 Level Boston Center
Mon 10:45:56 AM 40.9617 -71.3792 68° East 452 520 18,800 -1,550 Descending Boston Center
Mon 10:46:56 AM 41.0183 -71.2269 64° Northeast 438 504 16,900 -2,300 Descending Boston Center
Mon 10:47:56 AM 41.0567 -71.1022 68° East 405 466 14,200 -2,850 Descending Boston Center
Mon 10:48:56 AM 41.1303 -70.9850 50° Northeast 373 429 11,200 -2,400 Descending Boston Center
Mon 10:49:56 AM 41.1853 -70.9094 46° Northeast 334 384 9,400 -2,400 Descending Boston Center
Mon 10:50:56 AM 41.2508 -70.8222 45° Northeast 309 356 6,400 -2,200 Descending Boston Center
Mon 10:51:56 AM 41.2936 -70.7547 50° Northeast 275 316 5,000 -700 Descending Boston Center
Mon 10:52:56 AM 41.3528 -70.6758 45° Northeast 270 311 5,000  Level Boston Center
Mon 10:53:56 AM 41.3997 -70.6136 45° Northeast 270 311 5,000 -50 Level Boston Center
Mon 10:54:56 AM 41.4589 -70.5372 44° Northeast 265 305 4,900 -500 Descending Boston Center
Mon 10:55:56 AM 41.5183 -70.4772 37° Northeast 260 299 4,000 -1,200 Descending Boston Center
Mon 10:56:56 AM 41.5761 -70.4419 25° Northeast 249 287 2,500 -950 Descending Boston Center
Mon 10:57:56 AM 41.6319 -70.4208 16° North 219 252 2,100 -500 Descending Boston Center
Mon 10:58:56 AM 41.6794 -70.3831 31° Northeast 199 229 1,500 -450 Descending Boston Center
Mon 10:59:56 AM 41.6994 -70.3381 59° Northeast 145 167 1,200 -600 Descending Boston Center
Mon 11:00:56 AM 41.6819 -70.3053 126° Southeast 98 113 300 -500 Descending Boston Center
Mon 11:01:56 AM 41.6856 -70.2719 82° East 98 113 200 -100 Descending Boston Center

Login

Don't have an account? Register now (free) for customized features, flight alerts, and more!